KFLD/FLD METAR and TAF weather

Enter ICAO airport designator
Station Type Date Time Source
KFLD METAR 2019/08/23 16:53 UTC NOAA

KFLD 231653Z AUTO 02008KT 10SM CLR 22/12 A3027 RMK AO2 SLP251 T02170117


Station Type Date Time Source
KFLD Decoded METAR 2019/08/23 16:53 UTC NOAA

Station name not available
Aug 23, 2019 - 12:53 PM EDT / 2019.08.23 1653 UTC
Wind: from the NNE (020 degrees) at 9 MPH (8 KT):0
Visibility: 10 mile(s):0
Sky conditions: clear
Temperature: 71.1 F (21.7 C)
Dew Point: 53.1 F (11.7 C)
Relative Humidity: 52%
Pressure (altimeter): 30.27 in. Hg (1025 hPa)
ob: KFLD 231653Z AUTO 02008KT 10SM CLR 22/12 A3027 RMK AO2 SLP251 T02170117
cycle: 17

Station Type Date Time Source
KFLD TAF UTC NOAA

Error!

Example: see airport list